Latest Weather Observations for Charleville

IDQ60801

Issued at 12:05 pm EST Saturday 2 August 2014 (issued every 30 minutes, with the page automatically refreshed every 10 minutes)

About weather observations | Map of weather stations | Latest weather observations for QLD | Other Formats
Station Details ID: 044021 Name: CHARLEVILLE AERO Lat: -26.41 Lon: 146.26 Height: 301.6 m
Data from the previous 72 hours. | See also: Recent months at Charleville
Date/Time
EST
Temp
°C
App
Temp
°C
Dew
Point
Rel
Hum
%
Delta-T
°C
Wind Press
QNH
hPa
Press
MSL
hPa
Rain
since 9 am
mm
Dir
 
Spd
km/h
Gust
km/h
Spd
kts
Gust
kts
02/12:00pm 14.2 6.6 -9.4 18 8.1 SE 24 33 13 18 1026.4 1026.4 0.0
02/11:30am 14.2 5.9 -9.5 18 8.1 SE 28 37 15 20 1026.7 - 0.0
02/11:00am 13.8 6.3 -8.0 21 7.7 SE 24 33 13 18 1026.9 - 0.0
02/10:30am 12.6 4.1 -7.4 24 7.1 SE 30 41 16 22 1027.1 - 0.0
02/10:00am 12.0 5.1 -6.4 27 6.6 SE 22 33 12 18 1027.1 - 0.0
02/09:30am 11.2 3.2 -6.2 29 6.2 SSE 28 33 15 18 1027.0 - 0.0
02/09:00am 10.4 2.8 -5.8 31 5.8 SE 26 33 14 18 1026.8 1026.9 0.0
02/08:30am 8.7 2.2 -5.8 35 5.1 SSE 20 30 11 16 1026.5 - 0.0
02/08:00am 7.1 2.0 -5.5 40 4.4 SSE 13 15 7 8 1026.3 - 0.0
02/07:30am 5.6 1.3 -4.9 47 3.6 SSE 9 11 5 6 1025.9 - 0.0
02/07:00am 3.5 -1.2 -5.5 52 3.0 S 11 11 6 6 1025.6 - 0.0
02/06:30am 4.0 -0.4 -5.4 50 3.1 SSE 9 9 5 5 1025.3 - 0.0
02/06:00am 3.4 -1.3 -5.2 53 2.8 SSE 11 11 6 6 1024.8 1024.9 0.0
02/05:30am 3.4 -0.9 -5.1 54 2.8 SE 9 9 5 5 1024.4 - 0.0
02/05:00am 4.1 -0.2 -5.2 51 3.1 SSE 9 9 5 5 1024.2 - 0.0
02/04:30am 5.3 1.0 -5.1 47 3.6 SSE 9 11 5 6 1023.9 - 0.0
02/04:00am 4.8 0.4 -5.9 46 3.6 S 9 11 5 6 1024.1 - 0.0
02/03:30am 4.7 0.3 -6.0 46 3.5 S 9 9 5 5 1024.0 - 0.0
02/03:00am 6.3 2.9 -5.7 42 4.1 SSE 4 9 2 5 1023.9 1024.0 0.0
02/02:30am 7.0 2.6 -6.0 39 4.4 S 9 9 5 5 1023.9 - 0.0
02/02:00am 8.2 3.3 -6.6 34 5.1 S 11 11 6 6 1023.9 - 0.0
02/01:30am 8.8 3.5 -7.4 31 5.5 S 13 13 7 7 1023.8 - 0.0
02/01:00am 8.9 3.6 -6.9 32 5.4 S 13 15 7 8 1023.5 - 0.0
02/12:30am 9.9 4.6 -7.0 29 5.9 S 13 15 7 8 1023.6 - 0.0
02/12:00am 10.6 5.4 -6.7 29 6.1 S 13 17 7 9 1023.4 1023.4 0.0
 
Date/Time
EST
Temp
°C
App
Temp
°C
Dew
Point
Rel
Hum
%
Delta-T
°C
Wind Press
QNH
hPa
Press
MSL
hPa
Rain
since 9 am
mm
Dir
 
Spd
km/h
Gust
km/h
Spd
kts
Gust
kts
01/11:30pm 10.7 6.4 -4.9 33 5.7 SSE 9 13 5 7 1023.3 - 0.0
01/11:00pm 11.8 6.8 -4.7 31 6.2 S 13 17 7 9 1023.1 - 0.0
01/10:30pm 13.0 7.0 -6.2 26 7.0 S 17 20 9 11 1022.9 - 0.0
01/10:00pm 13.8 7.4 -6.7 23 7.5 S 19 32 10 17 1022.4 - 0.0
01/09:30pm 14.5 8.3 -4.5 26 7.4 S 19 28 10 15 1021.9 - 0.0
01/09:00pm 15.4 9.5 -0.8 33 6.8 SSW 20 35 11 19 1021.4 1021.5 0.0
01/08:30pm 16.0 11.1 -0.3 33 7.0 SSW 15 28 8 15 1020.6 - 0.0
01/08:00pm 16.5 12.0 -0.1 32 7.2 SSW 13 20 7 11 1020.3 - 0.0
01/07:30pm 17.3 12.1 -0.2 30 7.6 SSW 17 26 9 14 1019.5 - 0.0
01/07:00pm 18.1 12.3 0.0 29 8.0 SSW 20 30 11 16 1019.0 - 0.0
01/06:30pm 18.9 13.8 -2.0 24 8.9 SW 15 24 8 13 1018.3 - 0.0
01/06:00pm 19.9 14.3 -2.9 21 9.6 SW 17 33 9 18 1017.7 1017.7 0.0
01/05:30pm 21.2 14.4 -5.0 17 10.8 SW 22 30 12 16 1017.1 - 0.0
01/05:00pm 22.3 15.4 -6.4 14 11.6 WSW 22 35 12 19 1016.7 - 0.0
01/04:30pm 23.3 16.0 -6.6 13 12.2 WSW 24 39 13 21 1016.3 - 0.0
01/04:00pm 24.1 17.0 -8.1 11 12.8 WSW 22 37 12 20 1016.0 - 0.0
01/03:30pm 24.2 16.7 -9.1 10 13.0 WSW 24 35 13 19 1015.9 - 0.0
01/03:00pm 24.5 16.9 -9.9 9 13.3 W 24 33 13 18 1015.6 1015.6 0.0
01/02:30pm 24.4 17.2 -10.1 9 13.3 W 22 33 12 18 1015.6 - 0.0
01/02:00pm 24.5 17.5 -12.6 7 13.6 WSW 20 28 11 15 1015.8 - 0.0
01/01:30pm 24.4 17.6 -9.7 9 13.2 W 20 35 11 19 1016.0 - 0.0
01/01:00pm 24.6 17.9 -10.3 9 13.4 WSW 19 28 10 15 1016.3 - 0.0
01/12:30pm 23.7 16.5 -10.0 10 12.9 W 22 37 12 20 1016.9 - 0.0
01/12:00pm 24.2 18.2 -6.8 12 12.6 WSW 17 24 9 13 1017.2 1017.2 0.0
01/11:30am 24.0 18.0 -6.8 12 12.6 WSW 17 32 9 17 1017.4 - 0.0
01/11:00am 23.1 17.1 -6.9 13 12.1 W 17 28 9 15 1017.6 - 0.0
01/10:30am 22.0 17.2 -6.1 14 11.4 NW 11 15 6 8 1017.7 - 0.0
01/10:00am 21.1 16.4 -4.8 17 10.7 NNW 11 15 6 8 1017.8 - 0.0
01/09:30am 18.0 14.5 1.3 32 7.6 N 9 13 5 7 1017.9 - 0.0
01/09:00am 16.1 13.3 3.1 41 6.0 N 7 11 4 6 1017.8 1017.8 0.0
01/08:30am 13.2 10.4 2.9 49 4.6 N 7 11 4 6 1017.5 - 0.0
01/08:00am 10.9 8.1 3.4 60 3.3 N 7 9 4 5 1017.3 - 0.0
01/07:30am 9.0 7.6 3.4 68 2.5 CALM 0 0 0 0 1017.0 - 0.0
01/07:00am 7.1 4.5 3.3 77 1.6 N 6 6 3 3 1016.8 - 0.0
01/06:30am 8.1 5.3 3.3 72 2.1 NNE 7 9 4 5 1016.4 - 0.0
01/06:00am 8.2 5.0 3.2 71 2.2 NNE 9 11 5 6 1016.2 1016.2 0.0
01/05:30am 7.8 5.2 3.3 73 1.9 N 6 7 3 4 1016.1 - 0.0
01/05:00am 7.9 5.4 3.5 74 1.9 NNE 6 7 3 4 1016.0 - 0.0
01/04:30am 8.0 5.2 3.3 72 2.0 NNE 7 9 4 5 1015.8 - 0.0
01/04:00am 7.9 6.4 2.9 70 2.1 CALM 0 0 0 0 1015.6 - 0.0
01/03:30am 8.4 6.9 3.2 70 2.3 CALM 0 0 0 0 1015.5 - 0.0
01/03:00am 9.3 7.9 3.6 67 2.5 CALM 0 0 0 0 1015.8 1015.8 0.0
01/02:30am 9.9 7.7 3.1 62 3.0 NNE 4 7 2 4 1015.6 - 0.0
01/02:00am 9.6 8.1 3.2 64 2.8 CALM 0 7 0 4 1015.5 - 0.0
01/01:30am 10.3 7.8 3.9 64 2.9 NNE 6 7 3 4 1015.5 - 0.0
01/01:00am 10.6 9.2 3.5 61 3.2 CALM 0 0 0 0 1015.4 - 0.0
01/12:30am 11.1 9.7 3.7 60 3.3 CALM 0 0 0 0 1015.4 - 0.0
01/12:00am 11.6 9.9 4.0 59 3.5 N 2 7 1 4 1015.3 1015.5 0.0
 
Date/Time
EST
Temp
°C
App
Temp
°C
Dew
Point
Rel
Hum
%
Delta-T
°C
Wind Press
QNH
hPa
Press
MSL
hPa
Rain
since 9 am
mm
Dir
 
Spd
km/h
Gust
km/h
Spd
kts
Gust
kts
31/11:30pm 12.4 10.7 3.9 56 3.9 N 2 7 1 4 1015.5 - 0.0
31/11:00pm 12.9 10.3 3.4 52 4.3 WNW 6 9 3 5 1015.5 - 0.0
31/10:30pm 13.7 10.7 4.1 52 4.5 NNE 9 9 5 5 1015.3 - 0.0
31/10:00pm 14.9 12.3 4.2 48 5.0 N 7 7 4 4 1015.4 - 0.0
31/09:30pm 16.5 14.2 5.6 48 5.3 N 7 9 4 5 1015.3 - 0.0
31/09:00pm 18.4 15.9 4.6 40 6.7 N 7 11 4 6 1015.5 1015.8 0.0
31/08:30pm 19.9 16.8 3.5 34 7.9 WNW 9 11 5 6 1015.5 - 0.0
31/08:00pm 20.9 17.9 2.3 29 8.8 N 7 9 4 5 1015.2 - 0.0
31/07:30pm 18.8 16.7 4.0 37 7.1 N 4 6 2 3 1014.9 - 0.0
31/07:00pm 19.5 16.5 4.0 36 7.5 N 9 11 5 6 1014.5 - 0.0
31/06:30pm 20.7 17.7 4.2 33 8.1 N 9 9 5 5 1014.4 - 0.0
31/06:00pm 23.3 20.1 2.8 26 10.0 NW 9 11 5 6 1014.4 1014.7 0.0
31/05:30pm 24.9 19.9 -1.2 18 11.9 WNW 15 24 8 13 1014.3 - 0.0
31/05:00pm 25.9 20.4 -2.0 16 12.6 WNW 17 28 9 15 1014.1 - 0.0
31/04:30pm 26.2 20.2 -1.7 16 12.7 W 20 30 11 16 1014.0 - 0.0
31/04:00pm 26.7 21.3 -1.0 16 12.9 WNW 17 26 9 14 1014.0 - 0.0
31/03:30pm 26.6 21.3 -0.6 17 12.7 NW 17 26 9 14 1014.1 - 0.0
31/03:00pm 26.3 20.9 -1.3 16 12.7 NNW 17 22 9 12 1014.5 1014.8 0.0
31/02:30pm 26.4 20.1 -1.0 16 12.7 NW 22 33 12 18 1015.0 - 0.0
31/02:00pm 26.5 20.8 -0.4 17 12.6 WNW 19 26 10 14 1015.4 - 0.0
31/01:30pm 26.2 20.2 1.2 19 12.0 NW 22 32 12 17 1015.9 - 0.0
31/01:00pm 25.4 19.9 0.6 19 11.7 NNW 19 22 10 12 1016.7 - 0.0
31/12:30pm 24.9 19.6 1.8 22 11.1 NW 19 26 10 14 1017.3 - 0.0
31/12:00pm 24.0 19.2 2.6 24 10.4 N 17 24 9 13 1018.2 1018.4 0.0
31/11:30am 23.6 17.4 2.4 25 10.2 NNW 24 32 13 17 1018.7 - 0.0
31/11:00am 23.3 16.9 3.0 26 9.9 N 26 32 14 17 1019.2 - 0.0
31/10:30am 22.1 18.3 3.8 30 9.0 N 13 19 7 10 1019.7 - 0.0
31/10:00am 19.1 15.1 3.0 34 7.6 N 13 17 7 9 1020.1 - 0.0
31/09:30am 17.1 13.0 2.4 37 6.8 NNE 13 17 7 9 1020.3 - 0.0
31/09:00am 15.0 10.4 1.4 39 6.0 N 15 19 8 10 1020.2 1020.5 0.0
31/08:30am 13.4 8.7 1.2 43 5.3 NNE 15 19 8 10 1020.2 - 0.0
31/08:00am 11.1 6.6 -0.3 45 4.7 NNE 13 17 7 9 1020.1 - 0.0
31/07:30am 7.7 4.7 0.8 61 2.8 N 6 11 3 6 1019.9 - 0.0
31/07:00am 5.7 3.4 0.2 68 2.2 NE 2 7 1 4 1019.6 - 0.0
31/06:30am 6.0 2.8 -0.2 64 2.4 NE 6 7 3 4 1019.3 - 0.0
31/06:00am 6.6 3.8 -0.2 62 2.7 ENE 4 9 2 5 1019.1 1019.4 0.0
31/05:30am 6.7 4.7 -0.1 62 2.7 CALM 0 0 0 0 1019.0 - 0.0
31/05:00am 6.6 4.6 -0.1 62 2.6 CALM 0 0 0 0 1018.8 - 0.0
31/04:30am 7.0 5.0 -0.2 60 2.8 CALM 0 0 0 0 1018.5 - 0.0
31/04:00am 7.4 4.3 -0.1 59 3.0 N 6 11 3 6 1018.6 - 0.0
31/03:30am 8.0 6.0 -0.4 55 3.3 CALM 0 0 0 0 1018.7 - 0.0
31/03:00am 8.1 5.2 -1.4 51 3.7 ENE 4 7 2 4 1018.9 1019.2 0.0
31/02:30am 9.0 6.9 -0.5 51 3.8 CALM 0 0 0 0 1018.9 - 0.0
31/02:00am 9.3 5.9 -0.6 50 4.0 ENE 7 13 4 7 1019.2 - 0.0
31/01:30am 10.1 5.9 -0.8 46 4.4 E 11 15 6 8 1019.4 - 0.0
31/01:00am 10.3 7.4 -1.2 44 4.6 ESE 4 9 2 5 1019.6 - 0.0
31/12:30am 11.7 7.6 -2.9 36 5.7 ESE 9 11 5 6 1019.5 - 0.0
31/12:00am 13.1 8.6 -3.1 32 6.4 ESE 11 13 6 7 1019.8 1020.1 0.0
 
Date/Time
EST
Temp
°C
App
Temp
°C
Dew
Point
Rel
Hum
%
Delta-T
°C
Wind Press
QNH
hPa
Press
MSL
hPa
Rain
since 9 am
mm
Dir
 
Spd
km/h
Gust
km/h
Spd
kts
Gust
kts
30/11:30pm 12.6 8.1 -3.0 33 6.1 SE 11 13 6 7 1020.1 - 0.0
30/11:00pm 13.2 8.7 -3.1 32 6.4 SE 11 11 6 6 1020.2 - 0.0
30/10:30pm 13.5 9.0 -3.0 31 6.5 SE 11 13 6 7 1020.2 - 0.0
30/10:00pm 13.7 9.3 -2.1 33 6.4 SE 11 11 6 6 1020.3 - 0.0
30/09:30pm 13.8 9.8 -2.5 32 6.6 SE 9 11 5 6 1020.4 - 0.0
30/09:00pm 13.6 9.6 -2.2 33 6.4 SE 9 11 5 6 1020.3 1020.6 0.0
30/08:30pm 13.9 9.9 -2.1 33 6.5 SE 9 11 5 6 1020.2 - 0.0
30/08:00pm 13.6 10.4 0.6 41 5.6 S 7 9 4 5 1020.1 - 0.0
30/07:30pm 14.8 11.0 -0.8 34 6.6 S 9 11 5 6 1019.9 - 0.0
30/07:00pm 16.1 11.9 -1.0 31 7.3 S 11 13 6 7 1019.7 - 0.0
30/06:30pm 17.6 13.8 -0.6 29 7.9 S 9 11 5 6 1019.3 - 0.0
30/06:00pm 20.0 16.6 -0.8 24 9.2 S 7 9 4 5 1019.0 1019.3 0.0
30/05:30pm 23.6 20.4 -0.2 20 11.0 SW 6 7 3 4 1019.1 - 0.0
30/05:00pm 25.0 22.1 -4.5 14 12.7 ESE 2 6 1 3 1018.9 - 0.0
30/04:30pm 25.1 20.8 -4.8 13 12.8 NNW 9 13 5 7 1018.8 - 0.0
30/04:00pm 25.3 21.4 -6.3 12 13.2 SW 6 9 3 5 1018.8 - 0.0
30/03:30pm 25.2 20.8 -6.2 12 13.1 SW 9 13 5 7 1018.9 - 0.0
30/03:00pm 25.2 20.5 -5.3 13 12.9 NW 11 17 6 9 1019.1 1019.4 0.0
30/02:30pm 25.4 20.4 -4.2 14 12.8 WSW 13 19 7 10 1019.4 - 0.0
30/02:00pm 24.9 20.7 -3.9 14 12.5 S 9 15 5 8 1019.6 - 0.0
30/01:30pm 25.2 20.5 -4.9 13 12.9 NNW 11 17 6 9 1020.0 - 0.0
30/01:00pm 24.8 20.1 -5.0 13 12.7 N 11 13 6 7 1020.4 - 0.0
30/12:30pm 24.5 20.6 -4.6 14 12.4 WNW 7 13 4 7 1021.0 - 0.0

Other Formats:

Comma delimited format used in spreadsheet applications
http://www.bom.gov.au/fwo/IDQ60801/IDQ60801.94510.axf

JavaScript Object Notation format (JSON) in row-major order
http://www.bom.gov.au/fwo/IDQ60801/IDQ60801.94510.json